createdAt,value
2023-09-08T00:00:45.894Z,1016.777
2023-09-08T00:05:46.193Z,1016.721
2023-09-08T00:10:45.988Z,1016.711
2023-09-08T00:15:45.935Z,1016.694
2023-09-08T00:20:46.759Z,1016.682
2023-09-08T00:25:45.880Z,1016.708
2023-09-08T00:30:45.916Z,1016.688
2023-09-08T00:35:48.803Z,1016.718
2023-09-08T00:40:45.954Z,1016.666
2023-09-08T00:45:47.155Z,1016.623
2023-09-08T00:50:45.927Z,1016.638
2023-09-08T00:55:46.007Z,1016.589
2023-09-08T01:00:46.003Z,1016.594
2023-09-08T01:05:47.719Z,1016.615
2023-09-08T01:10:46.076Z,1016.585
2023-09-08T01:15:45.987Z,1016.628
2023-09-08T01:20:53.753Z,1016.602
2023-09-08T01:25:49.094Z,1016.612
2023-09-08T01:30:46.124Z,1016.589
2023-09-08T01:35:46.360Z,1016.571
2023-09-08T01:40:45.923Z,1016.544
2023-09-08T01:45:46.000Z,1016.477
2023-09-08T01:50:46.070Z,1016.514
2023-09-08T01:55:46.478Z,1016.513
2023-09-08T02:00:45.964Z,1016.446
2023-09-08T02:05:45.982Z,1016.52
2023-09-08T02:10:47.741Z,1016.454
2023-09-08T02:15:46.188Z,1016.472
2023-09-08T02:20:46.007Z,1016.443
2023-09-08T02:25:45.987Z,1016.476
2023-09-08T02:30:46.004Z,1016.434
2023-09-08T02:35:45.968Z,1016.447
2023-09-08T02:40:46.024Z,1016.362
2023-09-08T02:45:46.168Z,1016.362
2023-09-08T02:50:46.015Z,1016.364
2023-09-08T02:55:46.042Z,1016.379
2023-09-08T03:00:46.509Z,1016.394
2023-09-08T03:05:46.297Z,1016.445
2023-09-08T03:10:46.436Z,1016.416
2023-09-08T03:15:46.056Z,1016.346
2023-09-08T03:20:46.061Z,1016.414
2023-09-08T03:25:46.178Z,1016.431
2023-09-08T03:30:46.628Z,1016.362
2023-09-08T03:35:46.046Z,1016.385
2023-09-08T03:40:46.100Z,1016.355
2023-09-08T03:45:46.404Z,1016.336
2023-09-08T03:50:46.430Z,1016.34
2023-09-08T03:55:46.113Z,1016.328
2023-09-08T04:00:46.129Z,1016.299
2023-09-08T04:05:46.065Z,1016.317
2023-09-08T04:10:46.105Z,1016.346
2023-09-08T04:15:46.093Z,1016.335
2023-09-08T04:20:46.198Z,1016.286
2023-09-08T04:25:46.118Z,1016.311
2023-09-08T04:30:46.217Z,1016.362
2023-09-08T04:35:46.141Z,1016.293
2023-09-08T04:40:49.818Z,1016.279
2023-09-08T04:45:46.160Z,1016.299
2023-09-08T04:50:46.098Z,1016.391
2023-09-08T04:55:46.079Z,1016.358
2023-09-08T05:00:46.336Z,1016.332
2023-09-08T05:05:46.209Z,1016.39
2023-09-08T05:10:46.162Z,1016.405
2023-09-08T05:15:49.536Z,1016.444
2023-09-08T05:20:46.135Z,1016.401
2023-09-08T05:25:46.500Z,1016.432
2023-09-08T05:30:46.245Z,1016.441
2023-09-08T05:35:46.685Z,1016.418
2023-09-08T05:40:46.134Z,1016.398
2023-09-08T05:45:46.170Z,1016.399
2023-09-08T05:50:46.243Z,1016.448
2023-09-08T05:55:46.221Z,1016.428
2023-09-08T06:00:46.238Z,1016.449
2023-09-08T06:05:46.287Z,1016.442
2023-09-08T06:10:46.160Z,1016.4
2023-09-08T06:15:46.360Z,1016.42
2023-09-08T06:20:48.284Z,1016.403
2023-09-08T06:25:46.217Z,1016.346
2023-09-08T06:30:46.407Z,1016.407
2023-09-08T06:35:46.257Z,1016.416
2023-09-08T06:40:46.260Z,1016.383
2023-09-08T06:45:46.406Z,1016.369
2023-09-08T06:50:46.323Z,1016.401
2023-09-08T06:55:46.195Z,1016.376
2023-09-08T07:00:46.571Z,1016.369
2023-09-08T07:05:46.496Z,1016.367
2023-09-08T07:10:46.334Z,1016.322
2023-09-08T07:15:46.304Z,1016.316
2023-09-08T07:20:46.293Z,1016.453
2023-09-08T07:25:49.824Z,1016.55
2023-09-08T07:30:46.375Z,1016.551
2023-09-08T07:35:46.537Z,1016.59
2023-09-08T07:40:46.381Z,1016.587
2023-09-08T07:45:46.326Z,1016.575
2023-09-08T07:50:46.398Z,1016.536
2023-09-08T07:55:46.330Z,1016.574
2023-09-08T08:00:46.340Z,1016.606
2023-09-08T08:05:46.364Z,1016.596
2023-09-08T08:10:46.484Z,1016.557
2023-09-08T08:15:48.192Z,1016.543
2023-09-08T08:20:46.425Z,1016.615
2023-09-08T08:25:46.504Z,1016.562
2023-09-08T08:30:49.183Z,1016.621
2023-09-08T08:35:46.356Z,1016.604
2023-09-08T08:40:46.844Z,1016.596
2023-09-08T08:45:47.316Z,1016.61
2023-09-08T08:50:46.782Z,1016.568
2023-09-08T08:55:46.671Z,1016.51
2023-09-08T09:00:46.771Z,1016.54
2023-09-08T09:05:48.392Z,1016.515
2023-09-08T09:10:46.409Z,1016.555
2023-09-08T09:15:47.869Z,1016.443
2023-09-08T09:20:56.802Z,1016.431
2023-09-08T09:25:46.542Z,1016.4
2023-09-08T09:30:56.298Z,1016.405
2023-09-08T09:35:52.619Z,1016.356
2023-09-08T09:40:46.428Z,1016.362
2023-09-08T09:45:47.419Z,1016.343
2023-09-08T09:50:47.238Z,1016.348
2023-09-08T09:55:47.102Z,1016.327
2023-09-08T10:00:49.191Z,1016.331
2023-09-08T10:05:48.218Z,1016.329
2023-09-08T10:10:49.081Z,1016.365
2023-09-08T10:15:47.074Z,1016.368
2023-09-08T10:20:46.524Z,1016.374
2023-09-08T10:25:54.134Z,1016.306
2023-09-08T10:30:47.039Z,1016.275
2023-09-08T10:35:47.396Z,1016.276
2023-09-08T10:40:46.709Z,1016.274
2023-09-08T10:45:46.634Z,1016.257
2023-09-08T10:50:47.629Z,1016.196
2023-09-08T10:56:11.280Z,1016.204
2023-09-08T11:00:58.104Z,1016.255
2023-09-08T11:05:46.479Z,1016.23
2023-09-08T11:10:46.543Z,1016.27
2023-09-08T11:15:46.465Z,1016.224
2023-09-08T11:20:46.569Z,1016.245
2023-09-08T11:25:46.556Z,1016.239
2023-09-08T11:30:47.285Z,1016.187
2023-09-08T11:35:46.600Z,1016.21
2023-09-08T11:40:46.803Z,1016.189
2023-09-08T11:45:47.907Z,1016.126
2023-09-08T11:50:46.750Z,1016.113
2023-09-08T11:55:47.486Z,1016.117
2023-09-08T12:00:48.743Z,1016.079
2023-09-08T12:05:47.000Z,1016.089
2023-09-08T12:10:47.202Z,1016.028
2023-09-08T12:15:47.198Z,1016.024
2023-09-08T12:20:46.896Z,1015.961
2023-09-08T12:25:52.894Z,1015.997
2023-09-08T12:30:46.690Z,1015.965
2023-09-08T12:35:47.231Z,1015.919
2023-09-08T12:40:46.729Z,1015.915
2023-09-08T12:45:47.882Z,1015.952
2023-09-08T12:50:46.617Z,1015.855
2023-09-08T12:55:46.636Z,1015.867
2023-09-08T13:00:47.344Z,1015.845
2023-09-08T13:05:46.671Z,1015.745
2023-09-08T13:10:46.769Z,1015.748
2023-09-08T13:15:46.697Z,1015.744
2023-09-08T13:20:46.711Z,1015.723
2023-09-08T13:25:47.158Z,1015.638
2023-09-08T13:30:46.724Z,1015.596
2023-09-08T13:35:46.700Z,1015.543
2023-09-08T13:40:46.691Z,1015.538
2023-09-08T13:45:47.389Z,1015.528
2023-09-08T13:50:47.780Z,1015.537
2023-09-08T13:55:50.560Z,1015.484
2023-09-08T14:00:47.768Z,1015.5
2023-09-08T14:05:50.291Z,1015.511
2023-09-08T14:10:52.716Z,1015.48
2023-09-08T14:15:46.845Z,1015.473
2023-09-08T14:20:46.790Z,1015.414
2023-09-08T14:25:46.731Z,1015.396
2023-09-08T14:30:46.802Z,1015.336
2023-09-08T14:35:52.425Z,1015.3
2023-09-08T14:40:46.716Z,1015.246
2023-09-08T14:45:46.724Z,1015.231
2023-09-08T14:50:46.858Z,1015.239
2023-09-08T14:55:49.459Z,1015.305
2023-09-08T15:00:46.894Z,1015.197
2023-09-08T15:05:46.819Z,1015.222
2023-09-08T15:10:46.739Z,1015.223
2023-09-08T15:15:47.242Z,1015.287
2023-09-08T15:20:54.372Z,1015.211
2023-09-08T15:25:46.826Z,1015.177
2023-09-08T15:30:51.116Z,1015.143
2023-09-08T15:35:46.919Z,1015.13
2023-09-08T15:40:56.839Z,1015.113
2023-09-08T15:45:46.898Z,1015.079
2023-09-08T15:50:46.850Z,1015.059
2023-09-08T15:55:46.937Z,1015.035
2023-09-08T16:00:46.898Z,1015.052
2023-09-08T16:05:46.893Z,1015.146
2023-09-08T16:10:46.883Z,1015.086
2023-09-08T16:15:46.874Z,1015.005
2023-09-08T16:20:46.931Z,1014.976
2023-09-08T16:25:46.838Z,1014.994
2023-09-08T16:30:46.919Z,1014.962
2023-09-08T16:35:46.930Z,1014.904
2023-09-08T16:40:48.508Z,1014.955
2023-09-08T16:45:46.957Z,1014.954
2023-09-08T16:50:46.952Z,1014.965
2023-09-08T16:55:46.983Z,1014.951
2023-09-08T17:00:46.941Z,1014.94
2023-09-08T17:05:48.207Z,1014.868
2023-09-08T17:10:48.893Z,1014.938
2023-09-08T17:15:47.048Z,1014.946
2023-09-08T17:20:47.083Z,1014.92
2023-09-08T17:25:47.092Z,1014.954
2023-09-08T17:30:47.021Z,1014.966
2023-09-08T17:35:46.977Z,1014.942
2023-09-08T17:40:47.029Z,1014.999
2023-09-08T17:45:48.657Z,1014.994
2023-09-08T17:50:47.009Z,1014.998
2023-09-08T17:55:46.971Z,1015.067
2023-09-08T18:00:49.274Z,1015.073
2023-09-08T18:05:46.983Z,1015.161
2023-09-08T18:10:47.405Z,1015.113
2023-09-08T18:15:47.085Z,1015.139
2023-09-08T18:20:47.660Z,1015.181
2023-09-08T18:25:47.058Z,1015.182
2023-09-08T18:30:48.438Z,1015.244
2023-09-08T18:35:47.060Z,1015.284
2023-09-08T18:40:51.477Z,1015.248
2023-09-08T18:45:46.988Z,1015.312
2023-09-08T18:50:47.482Z,1015.338
2023-09-08T18:55:47.135Z,1015.397
2023-09-08T19:00:50.188Z,1015.383
2023-09-08T19:05:47.034Z,1015.336
2023-09-08T19:10:47.116Z,1015.382
2023-09-08T19:15:47.517Z,1015.409
2023-09-08T19:20:47.108Z,1015.419
2023-09-08T19:25:47.089Z,1015.39
2023-09-08T19:30:51.316Z,1015.427
2023-09-08T19:35:47.104Z,1015.413
2023-09-08T19:40:48.483Z,1015.397
2023-09-08T19:45:47.120Z,1015.378
2023-09-08T19:50:47.932Z,1015.408
2023-09-08T19:55:50.513Z,1015.403
2023-09-08T20:00:47.131Z,1015.353
2023-09-08T20:05:51.023Z,1015.401
2023-09-08T20:10:54.784Z,1015.4
2023-09-08T20:15:47.161Z,1015.382
2023-09-08T20:20:47.183Z,1015.385
2023-09-08T20:25:48.041Z,1015.384
2023-09-08T20:30:49.644Z,1015.368
2023-09-08T20:35:48.511Z,1015.378
2023-09-08T20:40:50.759Z,1015.315
2023-09-08T20:45:47.229Z,1015.374
2023-09-08T20:50:47.133Z,1015.343
2023-09-08T20:55:47.150Z,1015.312
2023-09-08T21:00:47.156Z,1015.287
2023-09-08T21:05:47.233Z,1015.276
2023-09-08T21:10:47.143Z,1015.24
2023-09-08T21:15:47.219Z,1015.227
2023-09-08T21:20:47.310Z,1015.209
2023-09-08T21:25:47.299Z,1015.21
2023-09-08T21:30:47.385Z,1015.198
2023-09-08T21:35:47.240Z,1015.19
2023-09-08T21:40:47.293Z,1015.16
2023-09-08T21:45:51.919Z,1015.151
2023-09-08T21:50:47.242Z,1015.188
2023-09-08T21:55:47.250Z,1015.158
2023-09-08T22:00:47.631Z,1015.194
2023-09-08T22:05:47.299Z,1015.153
2023-09-08T22:10:47.242Z,1015.137
2023-09-08T22:15:47.319Z,1015.166
2023-09-08T22:20:47.219Z,1015.215
2023-09-08T22:25:47.227Z,1015.218
2023-09-08T22:30:47.225Z,1015.198
2023-09-08T22:35:47.200Z,1015.228
2023-09-08T22:40:48.544Z,1015.182
2023-09-08T22:45:49.901Z,1015.175
2023-09-08T22:50:47.413Z,1015.124
2023-09-08T22:55:47.578Z,1015.129
2023-09-08T23:00:47.291Z,1015.124
2023-09-08T23:05:47.337Z,1015.145
2023-09-08T23:10:47.268Z,1015.127
2023-09-08T23:15:51.243Z,1015.116
2023-09-08T23:20:47.261Z,1015.164
2023-09-08T23:25:47.417Z,1015.192
2023-09-08T23:30:47.361Z,1015.173
2023-09-08T23:35:47.407Z,1015.147
2023-09-08T23:40:47.313Z,1015.079
2023-09-08T23:45:51.482Z,1015.004
2023-09-08T23:50:57.842Z,1014.963
2023-09-08T23:55:47.344Z,1015.028
